Time;durP1;ratioP1;P1;durP2;ratioP2;P2;SDS_P1;SDS_P2;PMS_P1;PMS_P2;Temp;Humidity;BMP_temperature;BMP_pressure;BME280_temperature;BME280_humidity;BME280_pressure;Samples;Min_cycle;Max_cycle;Signal;HPM_P1;HPM_P2
2022/09/27 00:01:16;;;;;;;6.47;3.92;;;9.60;99.90;;;;;;5055402;28;20078;-73
2022/09/27 00:03:42;;;;;;;5.22;3.85;;;9.60;99.90;;;;;;5037298;28;20211;-74
2022/09/27 00:06:15;;;;;;;6.40;4.05;;;9.70;99.90;;;;;;5055207;28;20021;-73
2022/09/27 00:08:41;;;;;;;4.32;3.90;;;9.70;99.90;;;;;;5037057;28;20059;-74
2022/09/27 00:11:21;;;;;;;5.82;3.92;;;9.70;99.90;;;;;;5054895;28;20021;-74
2022/09/27 00:13:47;;;;;;;5.00;3.80;;;9.60;99.90;;;;;;5050743;28;20017;-74
2022/09/27 00:16:12;;;;;;;4.28;3.60;;;9.60;99.90;;;;;;5055083;28;20036;-74
2022/09/27 00:18:38;;;;;;;4.93;3.67;;;9.60;99.90;;;;;;5054775;28;20535;-74
2022/09/27 00:21:09;;;;;;;6.22;4.35;;;9.70;99.90;;;;;;5055015;28;20045;-74
2022/09/27 00:23:35;;;;;;;6.70;4.35;;;9.60;99.90;;;;;;5054925;28;20028;-74
2022/09/27 00:26:01;;;;;;;5.60;4.55;;;9.50;99.90;;;;;;5054698;28;20028;-74
2022/09/27 00:28:27;;;;;;;9.77;4.60;;;9.70;99.90;;;;;;5054712;28;20021;-74
2022/09/27 00:30:53;;;;;;;6.50;4.45;;;9.50;99.90;;;;;;5037005;28;20024;-73
2022/09/27 00:33:19;;;;;;;5.97;4.32;;;9.50;99.90;;;;;;5054759;28;20060;-74
2022/09/27 00:35:45;;;;;;;6.65;4.65;;;9.50;99.90;;;;;;5054571;28;20028;-74
2022/09/27 00:38:11;;;;;;;8.48;4.80;;;9.60;99.90;;;;;;5054615;28;20024;-73
2022/09/27 00:40:38;;;;;;;5.32;4.43;;;9.50;99.90;;;;;;5053366;28;20530;-74
2022/09/27 00:43:18;;;;;;;9.23;5.53;;;9.50;99.90;;;;;;5035032;28;20083;-74
2022/09/27 00:45:50;;;;;;;8.00;5.88;;;9.50;99.90;;;;;;5052780;28;20438;-74
2022/09/27 00:48:20;;;;;;;10.70;5.75;;;9.60;99.90;;;;;;5052533;28;20025;-75
2022/09/27 00:50:49;;;;;;;7.97;5.43;;;9.60;99.90;;;;;;5053406;28;20025;-73
2022/09/27 00:53:20;;;;;;;6.30;5.53;;;9.60;99.90;;;;;;5036593;28;20513;-73
2022/09/27 00:55:56;;;;;;;8.25;6.28;;;9.60;99.90;;;;;;5054014;28;20021;-74
2022/09/27 00:58:26;;;;;;;9.13;6.53;;;9.60;99.90;;;;;;5036352;28;20025;-74
2022/09/27 01:00:57;;;;;;;8.07;6.25;;;9.50;99.90;;;;;;5054397;28;20048;-74
2022/09/27 01:03:39;;;;;;;9.77;6.63;;;9.60;99.90;;;;;;5054366;28;20108;-75
2022/09/27 01:06:07;;;;;;;6.93;5.68;;;9.60;99.90;;;;;;5054272;28;20379;-73
2022/09/27 01:08:34;;;;;;;7.28;6.00;;;9.60;99.90;;;;;;5054004;28;20107;-73
2022/09/27 01:11:13;;;;;;;6.40;5.80;;;9.60;99.90;;;;;;5054220;28;20029;-73
2022/09/27 01:14:03;;;;;;;10.38;5.88;;;9.50;99.90;;;;;;5054217;28;20025;-75
2022/09/27 01:16:41;;;;;;;9.70;6.40;;;9.50;99.90;;;;;;5054053;28;20496;-75
2022/09/27 01:19:26;;;;;;;11.25;6.45;;;9.50;99.90;;;;;;5053944;28;20025;-75
2022/09/27 01:22:13;;;;;;;10.23;6.53;;;9.50;99.90;;;;;;5054028;28;20036;-75
2022/09/27 01:25:31;;;;;;;9.57;6.78;;;9.70;99.90;;;;;;5053993;28;20061;-75
2022/09/27 01:28:17;;;;;;;6.97;5.70;;;9.60;99.90;;;;;;5028693;28;20542;-74
2022/09/27 01:30:45;;;;;;;7.80;5.90;;;9.60;99.90;;;;;;5024423;28;20080;-74
2022/09/27 01:33:35;;;;;;;8.80;5.90;;;9.70;99.90;;;;;;5053811;28;20021;-74
2022/09/27 01:36:20;;;;;;;9.02;6.28;;;9.70;99.90;;;;;;5053619;28;20436;-75
2022/09/27 01:39:01;;;;;;;9.00;6.57;;;9.70;99.90;;;;;;5040980;28;20032;-74
2022/09/27 01:41:33;;;;;;;9.25;7.35;;;9.70;99.90;;;;;;5053653;28;20025;-74
2022/09/27 01:44:22;;;;;;;10.65;7.78;;;9.50;99.90;;;;;;5053630;28;20028;-75
2022/09/27 01:46:53;;;;;;;6.97;5.45;;;9.70;99.90;;;;;;5022499;28;20044;-71
2022/09/27 01:49:51;;;;;;;7.93;4.75;;;9.70;99.90;;;;;;5053491;28;20553;-73
2022/09/27 01:52:38;;;;;;;10.30;5.80;;;9.50;99.90;;;;;;5037499;28;20536;-73
2022/09/27 01:55:07;;;;;;;6.43;5.18;;;9.60;99.90;;;;;;5041538;28;20116;-73
2022/09/27 01:57:39;;;;;;;9.57;5.07;;;9.60;99.90;;;;;;5053031;28;20044;-73
2022/09/27 02:00:08;;;;;;;6.25;5.35;;;9.50;99.90;;;;;;5053305;28;20433;-73
2022/09/27 02:02:46;;;;;;;7.55;5.15;;;9.60;99.90;;;;;;5053280;28;20395;-73
2022/09/27 02:05:16;;;;;;;6.00;3.85;;;9.60;99.90;;;;;;5053109;28;20025;-73
2022/09/27 02:07:57;;;;;;;6.55;4.70;;;9.30;99.90;;;;;;5052803;28;20112;-73
2022/09/27 02:10:30;;;;;;;6.75;4.35;;;9.50;99.90;;;;;;5052960;28;20025;-73
2022/09/27 02:13:04;;;;;;;5.95;4.10;;;9.50;99.90;;;;;;5035095;28;20108;-74
2022/09/27 02:15:42;;;;;;;5.70;3.88;;;9.60;99.90;;;;;;5052806;28;20039;-74
2022/09/27 02:18:16;;;;;;;7.28;4.68;;;9.40;99.90;;;;;;5052770;28;20021;-73
2022/09/27 02:20:51;;;;;;;4.70;4.15;;;9.50;99.90;;;;;;5052689;28;20045;-73
2022/09/27 02:23:39;;;;;;;7.32;4.30;;;9.50;99.90;;;;;;5052777;28;20052;-74
2022/09/27 02:26:15;;;;;;;5.82;4.03;;;9.50;99.90;;;;;;5034801;28;20398;-73
2022/09/27 02:28:45;;;;;;;8.10;4.60;;;9.50;99.90;;;;;;5052523;28;20043;-73
2022/09/27 02:31:11;;;;;;;5.40;4.20;;;9.40;99.90;;;;;;5034758;28;20159;-73
2022/09/27 02:33:43;;;;;;;5.38;3.80;;;9.40;99.90;;;;;;5034759;28;20598;-73
2022/09/27 02:36:10;;;;;;;6.47;4.00;;;9.50;99.90;;;;;;5052491;28;20494;-73
2022/09/27 02:38:36;;;;;;;7.68;4.15;;;9.40;99.90;;;;;;5034480;28;20025;-73
2022/09/27 02:41:02;;;;;;;6.68;3.55;;;9.30;99.90;;;;;;5052500;28;20047;-73
2022/09/27 02:43:30;;;;;;;6.70;4.28;;;9.30;99.90;;;;;;5052378;28;20037;-74
2022/09/27 02:46:24;;;;;;;6.07;3.90;;;9.20;99.90;;;;;;5052347;28;20025;-73
2022/09/27 02:49:05;;;;;;;5.93;3.60;;;9.20;99.90;;;;;;5042256;28;20017;-74
2022/09/27 02:51:40;;;;;;;5.05;4.18;;;9.20;99.90;;;;;;5052172;28;20425;-73
2022/09/27 02:54:08;;;;;;;7.80;4.90;;;9.40;99.90;;;;;;5034469;28;20059;-74
2022/09/27 02:56:58;;;;;;;6.82;3.92;;;9.20;99.90;;;;;;5039063;28;20259;-74
2022/09/27 02:59:46;;;;;;;7.10;4.35;;;9.20;99.90;;;;;;5034302;28;20048;-74
2022/09/27 03:02:17;;;;;;;4.85;3.60;;;9.20;99.90;;;;;;5052255;28;20025;-74
2022/09/27 03:05:05;;;;;;;6.57;4.18;;;9.20;99.90;;;;;;5039266;28;20024;-74
2022/09/27 03:07:31;;;;;;;10.13;4.45;;;9.20;99.90;;;;;;5051802;28;20559;-74
2022/09/27 03:09:57;;;;;;;8.05;4.65;;;9.20;99.90;;;;;;5033989;28;20063;-74
2022/09/27 03:12:26;;;;;;;5.80;4.20;;;9.20;99.90;;;;;;5034100;28;20028;-74
2022/09/27 03:14:56;;;;;;;7.00;4.32;;;9.20;99.90;;;;;;5051956;28;20110;-74
2022/09/27 03:17:22;;;;;;;6.63;4.03;;;9.20;99.90;;;;;;5051640;28;20514;-75
2022/09/27 03:19:48;;;;;;;9.18;4.55;;;9.30;99.90;;;;;;5051457;28;20069;-75
2022/09/27 03:22:14;;;;;;;9.45;4.72;;;9.00;99.90;;;;;;5051935;28;20487;-74
2022/09/27 03:24:40;;;;;;;7.85;4.20;;;9.20;99.90;;;;;;5051881;28;20025;-74
2022/09/27 03:27:06;;;;;;;7.95;4.30;;;9.20;99.90;;;;;;5051508;28;20586;-73
2022/09/27 03:29:31;;;;;;;8.88;3.92;;;9.20;99.90;;;;;;5051752;28;20021;-74
2022/09/27 03:31:57;;;;;;;10.35;4.05;;;9.10;99.90;;;;;;5051596;28;20029;-73
2022/09/27 03:34:23;;;;;;;5.65;4.00;;;9.10;99.90;;;;;;5051632;28;20021;-74
2022/09/27 03:36:49;;;;;;;7.22;4.38;;;9.10;99.90;;;;;;5059094;22;21223;-74
2022/09/27 03:39:14;;;;;;;6.95;4.70;;;9.10;99.90;;;;;;4994336;28;20033;-74
2022/09/27 03:41:40;;;;;;;8.68;4.47;;;9.10;99.90;;;;;;5011925;28;20022;-74
2022/09/27 03:44:06;;;;;;;7.68;4.13;;;9.10;99.90;;;;;;5012016;28;20071;-74
2022/09/27 03:46:32;;;;;;;5.07;4.30;;;9.10;99.90;;;;;;5013846;28;20471;-74
2022/09/27 03:48:57;;;;;;;7.72;4.32;;;9.10;99.90;;;;;;5031574;28;20033;-74
2022/09/27 03:51:23;;;;;;;8.20;4.13;;;9.20;99.90;;;;;;5031546;28;20526;-75
2022/09/27 03:53:48;;;;;;;5.60;4.00;;;9.10;99.90;;;;;;5031691;28;20017;-74
2022/09/27 03:56:14;;;;;;;7.00;4.20;;;9.20;99.90;;;;;;5021587;28;20025;-74
2022/09/27 03:58:40;;;;;;;5.65;3.25;;;9.10;99.90;;;;;;5031392;28;20049;-74
2022/09/27 04:01:05;;;;;;;6.00;4.10;;;9.10;99.90;;;;;;5031553;28;20395;-75
2022/09/27 04:03:31;;;;;;;6.60;4.30;;;9.30;99.90;;;;;;5013821;28;20049;-73
2022/09/27 04:05:59;;;;;;;5.65;3.83;;;9.00;99.90;;;;;;5018350;28;20029;-74
2022/09/27 04:08:24;;;;;;;5.82;4.05;;;8.90;99.90;;;;;;5019729;28;20052;-73
2022/09/27 04:10:50;;;;;;;6.57;4.10;;;9.10;99.90;;;;;;5029921;28;20482;-74
2022/09/27 04:13:16;;;;;;;6.25;3.75;;;9.20;99.90;;;;;;5031430;28;20026;-74
2022/09/27 04:15:42;;;;;;;5.38;3.40;;;9.20;99.90;;;;;;5008819;28;20126;-75
2022/09/27 04:18:07;;;;;;;5.63;3.70;;;9.20;99.90;;;;;;5022797;28;20029;-75
2022/09/27 04:20:35;;;;;;;5.88;4.07;;;9.20;99.90;;;;;;5018306;28;20025;-74
2022/09/27 04:23:00;;;;;;;4.80;3.67;;;9.00;99.90;;;;;;5019611;28;20491;-74
2022/09/27 04:25:26;;;;;;;4.60;3.28;;;9.10;99.90;;;;;;5024788;28;20057;-74
2022/09/27 04:27:53;;;;;;;7.97;4.80;;;9.10;99.90;;;;;;5005437;28;20052;-75
2022/09/27 04:30:19;;;;;;;13.82;8.18;;;9.20;99.90;;;;;;5012662;28;20018;-74
2022/09/27 04:32:45;;;;;;;5.38;3.40;;;9.10;99.90;;;;;;5014062;28;20106;-74
2022/09/27 04:37:56;;;;;;;4.28;3.00;;;9.10;99.90;;;;;;5028847;28;20048;-74
2022/09/27 04:40:22;;;;;;;3.00;2.50;;;9.30;99.90;;;;;;5034806;28;20399;-74
2022/09/27 04:42:49;;;;;;;3.92;2.40;;;9.10;99.90;;;;;;5034749;28;20056;-72
2022/09/27 04:45:16;;;;;;;5.63;2.97;;;9.10;99.90;;;;;;5016985;28;20394;-74
2022/09/27 04:47:43;;;;;;;4.57;2.38;;;9.10;99.90;;;;;;5034385;28;20021;-73
2022/09/27 04:50:08;;;;;;;3.67;2.58;;;9.10;99.90;;;;;;5009323;28;20030;-74
2022/09/27 04:52:34;;;;;;;4.68;2.88;;;9.00;99.90;;;;;;5029003;28;20022;-72
2022/09/27 04:55:00;;;;;;;8.10;2.83;;;9.20;99.90;;;;;;5027276;28;20022;-73
2022/09/27 04:57:25;;;;;;;6.72;3.35;;;9.10;99.90;;;;;;5010016;28;20371;-75
2022/09/27 04:59:51;;;;;;;4.25;2.75;;;9.20;99.90;;;;;;5022280;28;20024;-74
2022/09/27 05:02:17;;;;;;;5.78;2.38;;;9.30;99.90;;;;;;5024599;28;20045;-75
2022/09/27 05:04:43;;;;;;;4.15;2.60;;;9.10;99.90;;;;;;5015777;28;20044;-75
2022/09/27 05:07:08;;;;;;;6.53;3.25;;;9.10;99.90;;;;;;5014291;28;20076;-75
2022/09/27 05:09:34;;;;;;;4.10;3.00;;;9.10;99.90;;;;;;5033725;28;20029;-75
2022/09/27 05:12:00;;;;;;;4.78;2.45;;;9.20;99.90;;;;;;5016177;28;20048;-73
2022/09/27 05:14:26;;;;;;;5.03;2.53;;;9.10;99.90;;;;;;5033905;28;20045;-73
2022/09/27 05:16:52;;;;;;;8.50;5.90;;;9.10;99.90;;;;;;5033277;28;20033;-73
2022/09/27 05:19:18;;;;;;;69.70;62.45;;;9.20;99.90;;;;;;5034101;28;20040;-74
2022/09/27 05:21:44;;;;;;;312.30;160.15;;;9.20;99.90;;;;;;5001979;28;20480;-73
2022/09/27 05:24:09;;;;;;;112.43;69.88;;;9.30;99.90;;;;;;5014245;28;20029;-74
2022/09/27 05:26:36;;;;;;;90.75;65.10;;;9.20;99.90;;;;;;5013979;28;20048;-74
2022/09/27 05:29:02;;;;;;;18.77;15.95;;;9.10;99.90;;;;;;5013933;28;20360;-74
2022/09/27 05:31:28;;;;;;;16.35;13.25;;;9.10;99.90;;;;;;5013930;28;20114;-73
2022/09/27 05:33:54;;;;;;;4.10;3.08;;;9.10;99.90;;;;;;4996630;28;20465;-74
2022/09/27 05:36:20;;;;;;;7.30;3.28;;;9.10;99.90;;;;;;5010112;28;20026;-73
2022/09/27 05:38:46;;;;;;;5.78;2.47;;;9.10;99.90;;;;;;5015719;28;20103;-73
2022/09/27 05:41:12;;;;;;;6.43;3.53;;;9.10;99.90;;;;;;5033721;28;20029;-74
2022/09/27 05:43:37;;;;;;;5.20;3.10;;;9.00;99.90;;;;;;5015679;28;20033;-73
2022/09/27 05:46:04;;;;;;;7.38;3.78;;;9.10;99.90;;;;;;5033582;28;20097;-74
2022/09/27 05:48:30;;;;;;;6.82;3.47;;;9.00;99.90;;;;;;5033299;28;20100;-74
2022/09/27 05:50:56;;;;;;;5.50;3.53;;;9.00;99.90;;;;;;5033448;28;20145;-73
2022/09/27 05:53:22;;;;;;;14.18;10.55;;;9.00;99.90;;;;;;5015650;28;20478;-73
2022/09/27 05:55:48;;;;;;;40.72;25.60;;;9.10;99.90;;;;;;5033335;28;20164;-74
2022/09/27 05:58:15;;;;;;;79.07;45.30;;;9.00;99.90;;;;;;5015238;28;20562;-74
2022/09/27 06:00:42;;;;;;;59.13;36.92;;;9.00;99.90;;;;;;5033646;28;20021;-74
2022/09/27 06:03:10;;;;;;;73.35;50.78;;;9.00;99.90;;;;;;5033238;28;20123;-74
2022/09/27 06:05:37;;;;;;;93.63;51.35;;;9.10;99.90;;;;;;5033196;28;20037;-74
2022/09/27 06:08:08;;;;;;;119.80;61.38;;;8.90;99.90;;;;;;5032901;28;20059;-74
2022/09/27 06:10:33;;;;;;;11.93;6.35;;;9.00;99.90;;;;;;5001032;28;20029;-74
2022/09/27 06:13:04;;;;;;;119.05;60.03;;;9.00;99.90;;;;;;5013297;28;20034;-74
2022/09/27 06:15:32;;;;;;;35.13;17.77;;;9.00;99.90;;;;;;5013235;28;20101;-73
2022/09/27 06:18:11;;;;;;;59.90;30.35;;;9.10;99.90;;;;;;4995355;28;20029;-74
2022/09/27 06:20:38;;;;;;;119.43;54.28;;;9.10;99.90;;;;;;4995575;28;20026;-74
2022/09/27 06:23:09;;;;;;;38.05;20.33;;;9.00;99.90;;;;;;5013173;28;20026;-74
2022/09/27 06:25:36;;;;;;;6.47;3.97;;;9.00;99.90;;;;;;5016128;28;20384;-73
2022/09/27 06:28:02;;;;;;;9.32;6.22;;;9.00;99.90;;;;;;5030411;28;20025;-74
2022/09/27 06:30:28;;;;;;;5.38;4.00;;;9.00;99.90;;;;;;5030722;28;20025;-74
2022/09/27 06:33:01;;;;;;;4.10;3.20;;;8.90;99.90;;;;;;5012914;28;20085;-73
2022/09/27 06:35:28;;;;;;;5.70;4.88;;;9.00;99.90;;;;;;5030428;28;20030;-73
2022/09/27 06:37:54;;;;;;;8.52;5.78;;;9.20;99.90;;;;;;5030012;28;20116;-73
2022/09/27 06:40:21;;;;;;;4.65;2.90;;;9.00;99.90;;;;;;5030471;28;20562;-74
2022/09/27 06:42:48;;;;;;;4.38;3.45;;;8.90;99.90;;;;;;5012438;28;20026;-74
2022/09/27 06:45:14;;;;;;;4.30;2.58;;;9.00;99.90;;;;;;5012616;28;20056;-74
2022/09/27 06:47:40;;;;;;;3.83;2.83;;;9.00;99.90;;;;;;5030067;28;20029;-73
2022/09/27 06:50:06;;;;;;;2.92;2.65;;;9.00;99.90;;;;;;5030260;28;20039;-73
2022/09/27 06:52:33;;;;;;;3.20;2.42;;;9.00;99.90;;;;;;5012344;28;20487;-73
2022/09/27 06:55:00;;;;;;;4.72;2.30;;;9.10;99.90;;;;;;5028601;28;20025;-73
2022/09/27 07:00:23;;;;;;;3.53;2.10;;;9.20;99.90;;;;;;5030457;28;20044;-74
2022/09/27 07:02:49;;;;;;;2.47;1.70;;;9.20;99.90;;;;;;5029992;28;20030;-73
2022/09/27 07:05:16;;;;;;;2.97;2.10;;;9.30;99.90;;;;;;5030014;28;20026;-73
2022/09/27 07:07:46;;;;;;;1.80;1.40;;;9.30;99.90;;;;;;5029625;28;20113;-72
2022/09/27 07:10:13;;;;;;;2.85;1.63;;;9.30;99.90;;;;;;5029907;28;20029;-73
2022/09/27 07:12:38;;;;;;;2.97;1.70;;;9.30;99.90;;;;;;5020564;28;20057;-73
2022/09/27 07:15:05;;;;;;;2.42;1.73;;;9.30;99.90;;;;;;5025013;28;20697;-73
2022/09/27 07:17:31;;;;;;;3.03;1.58;;;9.30;99.90;;;;;;5009643;28;20871;-74
2022/09/27 07:19:56;;;;;;;3.60;1.67;;;9.40;99.90;;;;;;5008389;28;20025;-74
2022/09/27 07:22:22;;;;;;;1.95;1.73;;;9.30;99.90;;;;;;5024049;28;20383;-73
2022/09/27 07:24:48;;;;;;;1.90;1.50;;;9.20;99.90;;;;;;5028703;28;20083;-73
2022/09/27 07:27:14;;;;;;;1.73;1.30;;;9.20;99.90;;;;;;5028124;28;20432;-74
2022/09/27 07:29:40;;;;;;;1.85;1.40;;;9.20;99.90;;;;;;5027971;28;20112;-74
2022/09/27 07:32:06;;;;;;;3.40;1.40;;;9.30;99.90;;;;;;5023959;28;20117;-72
2022/09/27 07:34:34;;;;;;;2.97;1.23;;;9.30;99.90;;;;;;5027980;28;20025;-73
2022/09/27 07:37:02;;;;;;;1.20;1.10;;;9.50;99.90;;;;;;5028127;28;20025;-74
2022/09/27 07:39:28;;;;;;;1.60;1.27;;;9.50;99.90;;;;;;5027286;28;20021;-73
2022/09/27 07:41:54;;;;;;;1.38;1.10;;;9.40;99.90;;;;;;5027550;28;20181;-73
2022/09/27 07:44:19;;;;;;;1.70;1.05;;;9.50;99.90;;;;;;5026521;28;20372;-73
2022/09/27 07:46:45;;;;;;;1.83;1.08;;;9.40;99.90;;;;;;5028732;28;20100;-73
2022/09/27 07:49:11;;;;;;;1.33;1.13;;;9.50;99.90;;;;;;5029147;28;20091;-73
2022/09/27 07:51:36;;;;;;;1.40;1.20;;;9.30;99.90;;;;;;5029040;28;20141;-76
2022/09/27 07:54:02;;;;;;;1.83;1.20;;;9.20;99.90;;;;;;5029445;28;20021;-76
2022/09/27 07:56:28;;;;;;;2.17;1.20;;;9.30;99.90;;;;;;5011378;28;20506;-74
2022/09/27 07:58:54;;;;;;;1.40;1.30;;;9.40;99.90;;;;;;5009812;28;20033;-73
2022/09/27 08:01:19;;;;;;;2.10;1.50;;;9.20;99.90;;;;;;5027221;28;20029;-73
2022/09/27 08:03:45;;;;;;;2.20;1.38;;;9.00;99.90;;;;;;5009465;28;20025;-73
2022/09/27 08:06:11;;;;;;;1.55;1.30;;;9.00;99.90;;;;;;5029286;28;20441;-74
2022/09/27 08:08:37;;;;;;;1.27;1.17;;;9.00;99.90;;;;;;5031141;28;20037;-73
2022/09/27 08:11:13;;;;;;;1.45;1.35;;;9.00;99.90;;;;;;5031116;28;20501;-74
2022/09/27 08:13:39;;;;;;;1.17;1.15;;;8.90;99.90;;;;;;5030790;28;20049;-73
2022/09/27 08:16:05;;;;;;;1.73;1.45;;;9.00;99.90;;;;;;5009578;28;20072;-74
2022/09/27 08:18:30;;;;;;;1.50;1.40;;;8.80;99.90;;;;;;5032376;28;20026;-73
2022/09/27 08:20:57;;;;;;;2.55;1.55;;;8.80;99.90;;;;;;5025995;28;20038;-72
2022/09/27 08:23:23;;;;;;;1.98;1.80;;;8.80;99.90;;;;;;5023951;28;20034;-72
2022/09/27 08:25:53;;;;;;;2.42;1.67;;;8.60;99.90;;;;;;5029650;28;20108;-73
2022/09/27 08:28:19;;;;;;;1.92;1.30;;;8.60;99.90;;;;;;5030701;28;20022;-73
2022/09/27 08:30:44;;;;;;;1.90;1.38;;;8.70;99.90;;;;;;5013533;28;20029;-73
2022/09/27 08:33:10;;;;;;;1.83;1.60;;;8.70;99.90;;;;;;5012773;28;20018;-73
2022/09/27 08:35:36;;;;;;;5.60;1.50;;;8.80;99.90;;;;;;5012967;28;20055;-73
2022/09/27 08:38:04;;;;;;;1.63;1.52;;;8.90;99.90;;;;;;5031491;28;20029;-74
2022/09/27 08:40:53;;;;;;;2.50;1.42;;;8.80;99.90;;;;;;5032242;28;20451;-73
2022/09/27 08:43:37;;;;;;;2.45;1.73;;;8.90;99.90;;;;;;5013521;28;20112;-73
2022/09/27 08:46:26;;;;;;;3.08;1.77;;;8.90;99.90;;;;;;5015248;28;20065;-73
2022/09/27 08:49:19;;;;;;;1.90;1.60;;;9.00;99.90;;;;;;5015214;28;20083;-73
2022/09/27 08:51:48;;;;;;;4.05;2.60;;;9.00;99.90;;;;;;4995597;28;20046;-74
2022/09/27 08:54:29;;;;;;;2.30;1.70;;;9.20;99.90;;;;;;5031552;28;20026;-73
2022/09/27 08:57:02;;;;;;;4.05;1.70;;;9.20;99.90;;;;;;5023420;28;20037;-73
2022/09/27 08:59:39;;;;;;;2.60;1.80;;;9.30;99.90;;;;;;5020026;28;20506;-73
2022/09/27 09:02:20;;;;;;;2.47;2.03;;;9.40;99.90;;;;;;5028334;28;20025;-74
2022/09/27 09:04:50;;;;;;;4.70;2.10;;;9.40;99.90;;;;;;5032078;28;20437;-73
2022/09/27 09:07:36;;;;;;;2.88;1.83;;;9.50;99.90;;;;;;5026948;28;20053;-73
2022/09/27 09:14:00;;;;;;;2.30;2.10;;;9.60;99.90;;;;;;5010118;28;20037;-73
2022/09/27 09:16:34;;;;;;;2.72;1.90;;;9.70;99.90;;;;;;5030626;28;20029;-73
2022/09/27 09:19:15;;;;;;;3.17;1.85;;;9.60;99.90;;;;;;5031053;28;20484;-73
2022/09/27 09:21:58;;;;;;;3.80;1.85;;;9.80;99.90;;;;;;5029306;28;20060;-73
2022/09/27 09:24:47;;;;;;;1.75;1.63;;;9.60;99.90;;;;;;5027427;28;20360;-73
2022/09/27 09:27:37;;;;;;;1.80;1.70;;;9.80;99.90;;;;;;5028374;28;20025;-73
2022/09/27 09:30:45;;;;;;;3.33;1.70;;;9.90;99.90;;;;;;5013299;28;20069;-73
2022/09/27 09:33:21;;;;;;;2.35;1.95;;;9.90;99.90;;;;;;5025099;28;20072;-73
2022/09/27 09:35:50;;;;;;;2.00;1.80;;;9.90;99.90;;;;;;5031016;28;20022;-73
2022/09/27 09:38:25;;;;;;;1.73;1.63;;;9.80;99.90;;;;;;5023805;28;20036;-74
2022/09/27 09:41:05;;;;;;;1.97;1.70;;;9.70;99.90;;;;;;5031312;28;20387;-73
2022/09/27 09:43:44;;;;;;;2.15;1.70;;;9.60;99.90;;;;;;5032621;28;20064;-73
2022/09/27 09:46:19;;;;;;;2.40;1.52;;;9.50;99.90;;;;;;5031895;28;20100;-73
2022/09/27 09:49:25;;;;;;;3.03;1.58;;;9.60;99.90;;;;;;5008174;28;20022;-73
2022/09/27 09:51:57;;;;;;;1.98;1.70;;;9.50;99.90;;;;;;4979928;28;20041;-74
2022/09/27 09:54:25;;;;;;;2.30;1.83;;;9.80;99.90;;;;;;4980469;28;20544;-74
2022/09/27 09:57:05;;;;;;;4.22;2.03;;;9.60;99.90;;;;;;4985049;28;20037;-73
2022/09/27 09:59:41;;;;;;;2.20;2.00;;;9.70;99.90;;;;;;5030559;28;20426;-75
2022/09/27 10:02:24;;;;;;;2.33;1.70;;;9.70;99.90;;;;;;5017542;28;20044;-73
2022/09/27 10:04:49;;;;;;;2.50;1.85;;;9.60;99.90;;;;;;5031487;28;20025;-73
2022/09/27 10:07:20;;;;;;;2.65;2.15;;;9.70;99.90;;;;;;5014660;28;20106;-73
2022/09/27 10:09:46;;;;;;;5.13;2.00;;;9.80;99.90;;;;;;5004969;28;20493;-73
2022/09/27 10:12:11;;;;;;;2.28;1.83;;;9.80;99.90;;;;;;5032443;28;20029;-73
2022/09/27 10:14:38;;;;;;;2.60;1.60;;;9.70;99.90;;;;;;5026158;28;20025;-73
2022/09/27 10:17:09;;;;;;;2.92;2.00;;;9.60;99.90;;;;;;5031989;28;20021;-73
2022/09/27 10:19:38;;;;;;;3.13;2.47;;;9.60;99.90;;;;;;5021860;28;20135;-73
2022/09/27 10:22:31;;;;;;;2.47;1.90;;;9.60;99.90;;;;;;5004337;28;20017;-73
2022/09/27 10:25:06;;;;;;;2.58;2.20;;;9.50;99.90;;;;;;5032308;28;20053;-73
2022/09/27 10:27:50;;;;;;;3.22;1.95;;;9.60;99.90;;;;;;5027842;28;20028;-73
2022/09/27 10:30:31;;;;;;;2.10;1.85;;;9.60;99.90;;;;;;5027876;28;20491;-73
2022/09/27 10:33:04;;;;;;;2.80;2.08;;;9.60;99.90;;;;;;5031778;28;20030;-73
2022/09/27 10:35:29;;;;;;;1.90;1.70;;;9.80;99.90;;;;;;5032012;28;20076;-73
2022/09/27 10:38:23;;;;;;;2.05;1.85;;;9.70;99.90;;;;;;5031689;28;20033;-73
2022/09/27 10:40:51;;;;;;;2.92;2.15;;;9.60;99.90;;;;;;5031612;28;20044;-73
2022/09/27 10:43:34;;;;;;;2.83;2.10;;;9.60;99.90;;;;;;5030639;28;20572;-74
2022/09/27 10:46:07;;;;;;;3.13;2.30;;;9.60;99.90;;;;;;5013786;28;20030;-73
2022/09/27 10:48:35;;;;;;;3.92;1.83;;;9.80;99.90;;;;;;5006345;28;20030;-72
2022/09/27 10:51:05;;;;;;;3.90;1.80;;;9.80;99.90;;;;;;5027440;28;20029;-73
2022/09/27 10:53:34;;;;;;;5.03;2.22;;;9.80;99.90;;;;;;5071311;22;20037;-75
2022/09/27 10:56:00;;;;;;;2.20;2.00;;;9.90;99.90;;;;;;5032003;28;20391;-75
2022/09/27 10:58:35;;;;;;;2.08;1.73;;;10.10;99.90;;;;;;5030526;28;20080;-74
2022/09/27 11:01:07;;;;;;;2.55;2.00;;;10.30;99.90;;;;;;5032149;28;20033;-74
2022/09/27 11:03:38;;;;;;;2.40;2.10;;;10.30;99.90;;;;;;5031890;28;20033;-74
2022/09/27 11:06:21;;;;;;;2.72;2.03;;;10.40;99.90;;;;;;5032391;28;20478;-76
2022/09/27 11:08:49;;;;;;;2.78;1.95;;;10.20;99.90;;;;;;5031133;28;20038;-76
2022/09/27 11:11:18;;;;;;;2.80;2.00;;;10.40;99.90;;;;;;5025802;28;20384;-75
2022/09/27 11:14:06;;;;;;;2.40;1.95;;;10.00;99.90;;;;;;5016675;28;20407;-75
2022/09/27 11:16:50;;;;;;;1.55;1.45;;;10.10;99.90;;;;;;5014962;28;20014;-77
2022/09/27 11:19:55;;;;;;;1.83;1.52;;;10.10;99.90;;;;;;5022500;28;20057;-76
2022/09/27 11:22:40;;;;;;;2.20;1.70;;;10.00;99.90;;;;;;5035179;28;20022;-75
2022/09/27 11:25:29;;;;;;;2.33;1.73;;;10.00;99.90;;;;;;5028635;28;20029;-74
2022/09/27 11:28:13;;;;;;;2.03;1.80;;;10.10;99.90;;;;;;5024638;28;20029;-71
2022/09/27 11:31:08;;;;;;;2.45;1.80;;;10.20;99.90;;;;;;5018832;28;20052;-71
2022/09/27 11:33:55;;;;;;;4.10;1.95;;;10.20;99.90;;;;;;5011957;28;20014;-72
2022/09/27 11:36:41;;;;;;;2.58;1.50;;;10.30;99.90;;;;;;5026330;28;20399;-74
2022/09/27 11:39:19;;;;;;;2.25;2.00;;;10.40;99.90;;;;;;5031669;28;20032;-73
2022/09/27 11:42:09;;;;;;;2.30;2.10;;;10.50;99.90;;;;;;5026112;28;20029;-73
2022/09/27 11:45:00;;;;;;;3.38;2.38;;;10.50;99.90;;;;;;5043599;28;20025;-74
2022/09/27 11:47:47;;;;;;;2.50;1.60;;;10.50;99.90;;;;;;5015169;28;20056;-73
2022/09/27 11:50:26;;;;;;;3.45;1.92;;;10.60;99.90;;;;;;5031143;28;20059;-73
2022/09/27 11:53:10;;;;;;;2.97;1.90;;;10.60;99.90;;;;;;5031588;28;20034;-73
2022/09/27 11:55:57;;;;;;;2.22;1.75;;;10.80;99.90;;;;;;5031812;28;20022;-73
2022/09/27 11:58:41;;;;;;;3.70;1.67;;;10.60;99.90;;;;;;5030963;28;20021;-73
2022/09/27 12:01:54;;;;;;;5.43;2.00;;;10.60;99.90;;;;;;5030333;28;20022;-73
2022/09/27 12:04:31;;;;;;;4.57;1.88;;;10.80;99.90;;;;;;4978206;28;20026;-73
2022/09/27 12:07:12;;;;;;;2.55;1.90;;;10.90;99.90;;;;;;5009156;28;20048;-73
2022/09/27 12:09:44;;;;;;;1.60;1.50;;;10.90;99.90;;;;;;5019935;28;20044;-73
2022/09/27 12:12:12;;;;;;;3.97;1.58;;;10.70;99.90;;;;;;5029842;28;20049;-74
2022/09/27 12:14:49;;;;;;;3.15;1.38;;;11.00;99.90;;;;;;5029356;28;20029;-73
2022/09/27 12:17:25;;;;;;;4.25;1.63;;;11.40;99.90;;;;;;5025146;28;20076;-73
2022/09/27 12:19:53;;;;;;;2.40;1.42;;;11.50;99.90;;;;;;5027879;28;20112;-74
2022/09/27 12:22:56;;;;;;;1.50;1.30;;;11.30;99.90;;;;;;5029341;28;20030;-75
2022/09/27 12:25:25;;;;;;;1.85;1.20;;;11.80;99.90;;;;;;4962223;28;20040;-74
2022/09/27 12:28:02;;;;;;;3.50;1.35;;;12.40;99.90;;;;;;5028834;28;20017;-74
2022/09/27 12:30:31;;;;;;;2.60;1.20;;;12.50;99.90;;;;;;5029338;28;20021;-73
2022/09/27 12:33:07;;;;;;;4.53;1.40;;;12.20;99.90;;;;;;5024964;28;20368;-73
2022/09/27 12:35:54;;;;;;;2.15;1.38;;;11.80;99.90;;;;;;5027190;28;20039;-73
2022/09/27 12:38:45;;;;;;;1.67;1.05;;;12.20;99.90;;;;;;5029101;28;20029;-73
2022/09/27 12:41:16;;;;;;;4.22;1.35;;;12.50;99.90;;;;;;5023999;28;20152;-73
2022/09/27 12:43:44;;;;;;;3.67;1.20;;;12.60;99.90;;;;;;5026609;28;20423;-73
2022/09/27 12:46:34;;;;;;;1.90;1.10;;;12.30;99.90;;;;;;5028133;28;20018;-72
2022/09/27 12:49:26;;;;;;;3.65;1.20;;;12.50;99.90;;;;;;5027013;28;20556;-73
2022/09/27 12:51:59;;;;;;;3.55;1.20;;;12.50;99.90;;;;;;5019943;28;20563;-73
2022/09/27 12:54:49;;;;;;;3.10;1.05;;;13.00;99.90;;;;;;5030324;28;20048;-73
2022/09/27 12:57:25;;;;;;;2.13;1.50;;;13.00;99.90;;;;;;5029019;28;20752;-74
2022/09/27 13:00:09;;;;;;;3.13;1.13;;;13.10;99.90;;;;;;5032850;28;20505;-74
2022/09/27 13:02:54;;;;;;;3.25;1.10;;;13.60;99.90;;;;;;5030384;28;20540;-74
2022/09/27 13:05:26;;;;;;;2.53;1.20;;;13.60;99.90;;;;;;5031766;28;20022;-74
2022/09/27 13:08:00;;;;;;;1.77;0.98;;;12.50;99.90;;;;;;5031500;28;20092;-74
2022/09/27 13:10:40;;;;;;;3.03;0.93;;;12.20;99.90;;;;;;5030006;28;20055;-75
2022/09/27 13:13:11;;;;;;;2.75;0.95;;;11.90;99.90;;;;;;5028874;28;20022;-74
2022/09/27 13:15:38;;;;;;;2.60;1.05;;;11.60;99.90;;;;;;5032585;28;20422;-74
2022/09/27 13:18:26;;;;;;;3.03;0.80;;;11.50;99.90;;;;;;5034013;28;20471;-75
2022/09/27 13:20:51;;;;;;;3.08;1.05;;;11.40;99.90;;;;;;5034149;28;20044;-73
2022/09/27 13:23:17;;;;;;;2.58;1.00;;;11.40;99.90;;;;;;5034126;28;20033;-76
2022/09/27 13:26:02;;;;;;;4.05;1.10;;;11.30;99.90;;;;;;5034105;28;20128;-74
2022/09/27 13:28:31;;;;;;;2.28;0.80;;;11.20;99.90;;;;;;5033881;28;20034;-73
2022/09/27 13:31:05;;;;;;;1.80;0.85;;;11.20;99.90;;;;;;5033844;28;20036;-74